You are listening to:
ZNY Bermuda Sector - Hamilton, Bermuda

TXKF 040255Z 24012KT 8000 -SHRA SCT014 BKN075 OVC100 24/22 Q1013

If stream doesn't start automatically press the play button
If stream stops then reload player then press play